createdAt,value
2022-08-14T00:02:40.928Z,4.28
2022-08-14T00:06:25.897Z,4.35
2022-08-14T00:10:49.997Z,3.97
2022-08-14T00:14:17.458Z,4.32
2022-08-14T00:17:59.325Z,4.65
2022-08-14T00:21:41.157Z,4.28
2022-08-14T00:25:23.028Z,4.68
2022-08-14T00:29:04.876Z,5.18
2022-08-14T00:32:52.208Z,5.38
2022-08-14T00:36:48.260Z,5.53
2022-08-14T00:40:33.398Z,5.13
2022-08-14T00:44:27.563Z,3.88
2022-08-14T00:48:34.459Z,4.15
2022-08-14T00:52:18.592Z,3.88
2022-08-14T00:56:00.792Z,4.85
2022-08-14T00:59:49.217Z,4.50
2022-08-14T01:03:36.121Z,4.65
2022-08-14T01:07:21.322Z,4.32
2022-08-14T01:11:04.710Z,4.53
2022-08-14T01:14:46.673Z,4.10
2022-08-14T01:18:57.836Z,4.45
2022-08-14T01:22:45.991Z,4.15
2022-08-14T01:26:35.104Z,4.25
2022-08-14T01:30:25.964Z,4.10
2022-08-14T01:35:19.269Z,4.18
2022-08-14T01:38:13.144Z,5.00
2022-08-14T01:42:00.944Z,4.40
2022-08-14T01:45:48.984Z,4.22
2022-08-14T01:49:46.561Z,4.35
2022-08-14T01:53:45.670Z,4.22
2022-08-14T01:57:49.463Z,4.50
2022-08-14T02:01:31.269Z,4.57
2022-08-14T02:05:14.363Z,4.70
2022-08-14T02:08:56.979Z,4.00
2022-08-14T02:12:38.946Z,4.32
2022-08-14T02:16:26.350Z,4.72
2022-08-14T02:20:08.780Z,5.05
2022-08-14T02:23:53.732Z,4.32
2022-08-14T02:28:21.920Z,4.20
2022-08-14T02:31:43.916Z,4.10
2022-08-14T02:35:32.673Z,4.95
2022-08-14T02:39:16.244Z,3.42
2022-08-14T02:43:03.869Z,3.55
2022-08-14T02:46:49.669Z,4.47
2022-08-14T02:50:33.699Z,4.00
2022-08-14T02:54:19.638Z,4.30
2022-08-14T02:58:03.375Z,4.35
2022-08-14T03:01:51.175Z,5.13
2022-08-14T03:05:41.579Z,4.40
2022-08-14T03:09:24.204Z,4.80
2022-08-14T03:13:06.406Z,4.57
2022-08-14T03:17:01.309Z,4.65
2022-08-14T03:20:43.257Z,4.75
2022-08-14T03:24:28.313Z,4.68
2022-08-14T03:28:14.390Z,4.97
2022-08-14T03:32:11.251Z,4.45
2022-08-14T03:37:28.368Z,4.75
2022-08-14T03:39:55.612Z,5.13
2022-08-14T03:43:37.491Z,4.80
2022-08-14T03:47:20.874Z,4.43
2022-08-14T03:51:02.745Z,4.75
2022-08-14T03:54:52.631Z,4.40
2022-08-14T03:58:36.600Z,4.18
2022-08-14T04:02:32.901Z,4.03
2022-08-14T04:06:22.266Z,4.10
2022-08-14T04:10:10.355Z,4.68
2022-08-14T04:13:52.524Z,4.32
2022-08-14T04:17:34.383Z,4.50
2022-08-14T04:21:18.133Z,4.10
2022-08-14T04:25:04.924Z,4.47
2022-08-14T04:29:08.053Z,4.28
2022-08-14T04:32:57.475Z,5.05
2022-08-14T04:41:08.622Z,4.28
2022-08-14T04:44:52.508Z,4.47
2022-08-14T04:48:43.497Z,4.70
2022-08-14T04:52:25.819Z,4.32
2022-08-14T04:56:30.043Z,3.90
2022-08-14T05:00:16.369Z,4.43
2022-08-14T05:04:00.414Z,4.72
2022-08-14T05:07:54.683Z,4.18
2022-08-14T05:11:44.259Z,4.20
2022-08-14T05:15:29.540Z,4.57
2022-08-14T05:19:24.964Z,4.57
2022-08-14T05:23:11.046Z,4.35
2022-08-14T05:26:53.471Z,5.10
2022-08-14T05:30:35.646Z,4.70
2022-08-14T05:34:17.660Z,5.00
2022-08-14T05:38:01.334Z,4.95
2022-08-14T05:41:54.284Z,4.50
2022-08-14T05:45:37.126Z,4.80
2022-08-14T05:49:18.958Z,4.50
2022-08-14T05:53:01.194Z,4.50
2022-08-14T05:56:43.367Z,4.88
2022-08-14T06:00:31.683Z,5.32
2022-08-14T06:04:18.905Z,5.32
2022-08-14T06:08:01.685Z,5.25
2022-08-14T06:11:50.340Z,5.03
2022-08-14T06:15:34.669Z,4.60
2022-08-14T06:19:19.159Z,5.15
2022-08-14T06:23:01.741Z,4.55
2022-08-14T06:26:43.995Z,4.68
2022-08-14T06:30:46.289Z,4.72
2022-08-14T06:35:11.246Z,4.32
2022-08-14T06:38:31.144Z,3.90
2022-08-14T06:42:32.257Z,4.10
2022-08-14T06:46:32.451Z,4.72
2022-08-14T06:50:21.802Z,4.57
2022-08-14T06:54:10.112Z,4.05
2022-08-14T06:57:52.577Z,4.35
2022-08-14T07:01:56.562Z,4.25
2022-08-14T07:05:55.247Z,3.92
2022-08-14T07:09:43.595Z,4.57
2022-08-14T07:13:32.878Z,5.28
2022-08-14T07:17:14.772Z,5.07
2022-08-14T07:21:00.562Z,4.47
2022-08-14T07:24:42.416Z,4.47
2022-08-14T07:28:29.962Z,4.65
2022-08-14T07:32:11.868Z,4.47
2022-08-14T07:36:26.703Z,4.15
2022-08-14T07:40:09.171Z,4.38
2022-08-14T07:43:55.779Z,4.22
2022-08-14T07:47:41.477Z,4.40
2022-08-14T07:51:23.923Z,4.57
2022-08-14T07:55:08.563Z,4.00
2022-08-14T07:58:51.744Z,4.30
2022-08-14T08:02:35.411Z,4.38
2022-08-14T08:06:22.567Z,4.05
2022-08-14T08:10:46.335Z,3.72
2022-08-14T08:14:31.196Z,3.63
2022-08-14T08:18:20.361Z,4.53
2022-08-14T08:22:09.234Z,3.28
2022-08-14T08:25:52.110Z,3.60
2022-08-14T08:29:35.972Z,3.80
2022-08-14T08:33:21.340Z,3.25
2022-08-14T08:37:07.311Z,3.22
2022-08-14T08:40:56.812Z,3.03
2022-08-14T08:44:41.980Z,2.90
2022-08-14T08:48:37.104Z,3.28
2022-08-14T08:52:25.165Z,3.40
2022-08-14T08:56:11.139Z,3.05
2022-08-14T09:00:25.711Z,3.55
2022-08-14T09:08:33.340Z,4.32
2022-08-14T09:12:15.455Z,3.38
2022-08-14T09:15:58.046Z,2.63
2022-08-14T09:19:40.041Z,2.75
2022-08-14T09:23:27.460Z,2.80
2022-08-14T09:27:22.676Z,2.92
2022-08-14T09:31:08.601Z,2.50
2022-08-14T09:35:03.403Z,3.10
2022-08-14T09:38:53.801Z,2.58
2022-08-14T09:43:07.196Z,2.70
2022-08-14T09:46:56.702Z,2.70
2022-08-14T09:50:56.887Z,2.67
2022-08-14T09:54:48.022Z,2.53
2022-08-14T09:58:39.181Z,2.42
2022-08-14T10:02:31.242Z,2.28
2022-08-14T10:06:19.449Z,2.38
2022-08-14T10:10:03.701Z,2.53
2022-08-14T10:14:34.635Z,1.90
2022-08-14T10:18:19.296Z,1.55
2022-08-14T10:23:15.472Z,1.73
2022-08-14T10:26:22.839Z,2.03
2022-08-14T10:30:22.595Z,1.63
2022-08-14T10:34:14.181Z,1.40
2022-08-14T10:38:00.713Z,1.63
2022-08-14T10:41:48.689Z,1.42
2022-08-14T10:45:42.015Z,1.13
2022-08-14T10:49:28.594Z,1.20
2022-08-14T10:53:10.578Z,1.60
2022-08-14T10:56:55.448Z,1.20
2022-08-14T11:00:39.446Z,1.00
2022-08-14T11:04:30.867Z,1.42
2022-08-14T11:08:15.496Z,1.02
2022-08-14T11:12:40.245Z,0.98
2022-08-14T11:16:01.820Z,1.08
2022-08-14T11:19:51.476Z,0.80
2022-08-14T11:23:40.889Z,0.70
2022-08-14T11:27:33.120Z,0.90
2022-08-14T11:31:23.824Z,0.70
2022-08-14T11:35:06.618Z,0.95
2022-08-14T11:38:48.496Z,0.90
2022-08-14T11:42:58.520Z,0.60
2022-08-14T11:46:37.479Z,0.50
2022-08-14T11:50:24.987Z,0.50
2022-08-14T11:54:19.669Z,0.80
2022-08-14T11:58:08.844Z,0.65
2022-08-14T12:01:51.024Z,0.60
2022-08-14T12:05:39.761Z,0.60
2022-08-14T12:09:32.431Z,0.40
2022-08-14T12:13:19.277Z,0.50
2022-08-14T12:17:11.877Z,0.85
2022-08-14T12:20:59.966Z,0.85
2022-08-14T12:24:49.450Z,0.55
2022-08-14T12:28:34.051Z,0.50
2022-08-14T12:36:30.702Z,0.80
2022-08-14T12:40:15.562Z,0.60
2022-08-14T12:44:08.475Z,0.60
2022-08-14T12:48:01.289Z,0.40
2022-08-14T12:52:04.396Z,0.60
2022-08-14T12:56:18.368Z,0.52
2022-08-14T13:00:29.220Z,0.60
2022-08-14T13:04:16.445Z,0.57
2022-08-14T13:08:00.603Z,0.40
2022-08-14T13:11:46.219Z,0.55
2022-08-14T13:15:28.415Z,0.98
2022-08-14T13:19:16.682Z,0.52
2022-08-14T13:22:59.694Z,0.50
2022-08-14T13:26:51.449Z,0.50
2022-08-14T13:30:36.397Z,0.50
2022-08-14T13:34:24.772Z,0.45
2022-08-14T13:38:07.507Z,0.70
2022-08-14T13:41:57.573Z,0.63
2022-08-14T13:46:00.341Z,0.50
2022-08-14T13:49:57.130Z,0.43
2022-08-14T13:54:07.157Z,0.50
2022-08-14T13:58:02.903Z,0.50
2022-08-14T14:01:46.849Z,0.60
2022-08-14T14:05:52.600Z,0.60
2022-08-14T14:09:50.981Z,0.47
2022-08-14T14:13:36.125Z,0.55
2022-08-14T14:21:02.441Z,0.70
2022-08-14T14:24:46.349Z,0.63
2022-08-14T14:32:17.349Z,0.65
2022-08-14T14:36:04.984Z,0.70
2022-08-14T14:40:53.700Z,0.70
2022-08-14T14:43:54.298Z,0.50
2022-08-14T14:47:36.877Z,0.82
2022-08-14T14:51:19.456Z,0.80
2022-08-14T14:55:03.610Z,0.70
2022-08-14T14:58:46.253Z,0.70
2022-08-14T15:02:36.984Z,1.00
2022-08-14T15:06:19.480Z,1.15
2022-08-14T15:10:01.459Z,0.68
2022-08-14T15:17:41.538Z,0.80
2022-08-14T15:21:24.411Z,1.02
2022-08-14T15:25:09.459Z,1.00
2022-08-14T15:29:02.764Z,1.00
2022-08-14T15:32:46.856Z,0.90
2022-08-14T15:36:29.864Z,0.70
2022-08-14T15:40:16.265Z,0.98
2022-08-14T15:44:04.769Z,0.70
2022-08-14T15:48:02.260Z,0.80
2022-08-14T15:51:45.899Z,0.45
2022-08-14T15:55:30.432Z,0.90
2022-08-14T15:59:13.228Z,0.80
2022-08-14T16:03:00.563Z,0.82
2022-08-14T16:06:42.420Z,0.88
2022-08-14T16:10:30.033Z,0.73
2022-08-14T16:14:12.508Z,0.90
2022-08-14T16:17:55.141Z,0.82
2022-08-14T16:21:39.641Z,0.98
2022-08-14T16:29:17.639Z,0.88
2022-08-14T16:33:01.326Z,1.10
2022-08-14T16:36:50.855Z,0.90
2022-08-14T16:40:33.742Z,0.70
2022-08-14T16:44:37.944Z,0.90
2022-08-14T16:48:54.990Z,0.90
2022-08-14T16:52:44.812Z,0.80
2022-08-14T16:56:36.285Z,0.77
2022-08-14T17:00:29.337Z,0.75
2022-08-14T17:04:24.399Z,0.80
2022-08-14T17:08:31.781Z,1.08
2022-08-14T17:12:28.409Z,0.65
2022-08-14T17:16:25.365Z,0.73
2022-08-14T17:20:54.542Z,0.98
2022-08-14T17:24:58.510Z,0.70
2022-08-14T17:28:51.569Z,0.50
2022-08-14T17:32:55.713Z,0.93
2022-08-14T17:36:35.514Z,0.40
2022-08-14T17:40:20.857Z,0.70
2022-08-14T17:44:34.218Z,1.30
2022-08-14T17:49:13.763Z,0.85
2022-08-14T17:52:41.459Z,0.80
2022-08-14T17:56:26.603Z,0.77
2022-08-14T18:00:16.569Z,0.93
2022-08-14T18:04:05.354Z,0.70
2022-08-14T18:07:50.661Z,0.90
2022-08-14T18:11:50.853Z,0.70
2022-08-14T18:15:37.115Z,0.73
2022-08-14T18:19:22.025Z,0.85
2022-08-14T18:23:06.070Z,0.50
2022-08-14T18:26:50.080Z,1.00
2022-08-14T18:30:58.830Z,0.60
2022-08-14T18:34:50.996Z,0.75
2022-08-14T18:38:42.866Z,0.82
2022-08-14T18:42:30.352Z,0.90
2022-08-14T18:46:59.926Z,1.02
2022-08-14T18:50:27.495Z,0.85
2022-08-14T18:54:32.786Z,1.27
2022-08-14T18:58:27.429Z,1.17
2022-08-14T19:02:30.548Z,1.10
2022-08-14T19:06:16.505Z,0.80
2022-08-14T19:10:05.942Z,0.88
2022-08-14T19:13:51.518Z,1.27
2022-08-14T19:18:14.138Z,1.27
2022-08-14T19:21:55.827Z,1.27
2022-08-14T19:25:48.223Z,0.90
2022-08-14T19:29:38.000Z,1.00
2022-08-14T19:33:48.875Z,0.98
2022-08-14T19:37:52.374Z,1.38
2022-08-14T19:41:37.860Z,1.15
2022-08-14T19:45:23.659Z,0.93
2022-08-14T19:49:06.490Z,1.03
2022-08-14T19:52:48.394Z,1.50
2022-08-14T19:56:35.512Z,1.45
2022-08-14T20:00:28.083Z,1.20
2022-08-14T20:04:46.726Z,1.05
2022-08-14T20:10:59.682Z,1.13
2022-08-14T20:12:29.034Z,1.52
2022-08-14T20:16:21.213Z,1.38
2022-08-14T20:20:31.991Z,1.25
2022-08-14T20:24:30.791Z,1.05
2022-08-14T20:28:28.827Z,1.42
2022-08-14T20:32:14.750Z,1.27
2022-08-14T20:35:56.781Z,1.13
2022-08-14T20:39:54.285Z,1.02
2022-08-14T20:43:58.598Z,1.25
2022-08-14T20:47:55.001Z,1.38
2022-08-14T20:51:54.557Z,1.20
2022-08-14T20:55:45.425Z,1.13
2022-08-14T20:59:29.597Z,1.10
2022-08-14T21:03:57.444Z,1.60
2022-08-14T21:07:40.136Z,1.05
2022-08-14T21:11:26.026Z,1.20
2022-08-14T21:15:11.364Z,1.00
2022-08-14T21:19:00.148Z,1.10
2022-08-14T21:22:44.686Z,1.40
2022-08-14T21:26:33.243Z,1.33
2022-08-14T21:30:52.010Z,1.45
2022-08-14T21:34:34.559Z,1.40
2022-08-14T21:38:18.466Z,1.35
2022-08-14T21:42:00.619Z,1.42
2022-08-14T21:45:53.031Z,1.48
2022-08-14T21:49:39.114Z,1.13
2022-08-14T21:53:25.058Z,2.05
2022-08-14T21:57:15.500Z,1.50
2022-08-14T22:00:57.500Z,1.48
2022-08-14T22:04:41.537Z,1.88
2022-08-14T22:08:26.549Z,1.30
2022-08-14T22:12:10.696Z,1.63
2022-08-14T22:15:59.652Z,1.33
2022-08-14T22:19:54.403Z,1.67
2022-08-14T22:23:37.222Z,1.40
2022-08-14T22:27:21.317Z,1.38
2022-08-14T22:31:11.175Z,1.45
2022-08-14T22:35:00.126Z,1.38
2022-08-14T22:38:49.932Z,1.27
2022-08-14T22:42:35.553Z,1.48
2022-08-14T22:46:20.236Z,1.50
2022-08-14T22:50:30.757Z,1.20
2022-08-14T22:54:05.017Z,1.70
2022-08-14T22:57:46.862Z,1.58
2022-08-14T23:01:56.468Z,1.70
2022-08-14T23:05:54.476Z,1.50
2022-08-14T23:09:38.201Z,1.80
2022-08-14T23:13:22.411Z,1.17
2022-08-14T23:17:06.277Z,1.50
2022-08-14T23:20:54.097Z,1.30
2022-08-14T23:24:41.596Z,1.58
2022-08-14T23:28:33.940Z,1.55
2022-08-14T23:32:30.298Z,1.70
2022-08-14T23:36:31.964Z,1.50
2022-08-14T23:40:26.513Z,1.70
2022-08-14T23:44:12.651Z,1.40
2022-08-14T23:47:54.581Z,1.45
2022-08-14T23:51:38.668Z,1.98
2022-08-14T23:55:21.543Z,1.52
2022-08-14T23:59:04.203Z,1.77
